Time;durP1;ratioP1;P1;durP2;ratioP2;P2;SDS_P1;SDS_P2;PMS_P1;PMS_P2;Temp;Humidity;BMP_temperature;BMP_pressure;BME280_temperature;BME280_humidity;BME280_pressure;Samples;Min_cycle;Max_cycle;Signal;HPM_P1;HPM_P2
2023/05/18 00:00:35;;;;;;;7.93;7.13;;;23.00;84.30;;;;;;6267935;27;89104;-67
2023/05/18 00:03:38;;;;;;;8.95;7.70;;;23.00;85.20;;;;;;6281085;27;89373;-67
2023/05/18 00:06:40;;;;;;;8.73;7.35;;;23.00;84.30;;;;;;6283308;27;88288;-67
2023/05/18 00:09:42;;;;;;;8.48;7.57;;;23.10;84.40;;;;;;6262405;27;89112;-67
2023/05/18 00:12:44;;;;;;;8.90;7.10;;;23.00;84.20;;;;;;6282791;27;89112;-67
2023/05/18 00:15:46;;;;;;;8.75;7.72;;;23.00;84.20;;;;;;6274821;27;90216;-67
2023/05/18 00:18:53;;;;;;;8.73;7.20;;;23.00;84.20;;;;;;6282314;27;89111;-67
2023/05/18 00:21:55;;;;;;;9.00;7.38;;;23.00;84.20;;;;;;6295124;27;89305;-67
2023/05/18 00:24:57;;;;;;;7.85;6.93;;;23.00;84.10;;;;;;6282685;27;88836;-67
2023/05/18 00:27:59;;;;;;;7.68;6.97;;;23.00;84.00;;;;;;6293354;27;88255;-68
2023/05/18 00:31:01;;;;;;;9.07;7.15;;;23.00;84.00;;;;;;6273656;27;90275;-67
2023/05/18 00:34:05;;;;;;;7.55;6.85;;;23.00;84.00;;;;;;6276157;27;87989;-67
2023/05/18 00:37:07;;;;;;;8.05;7.22;;;23.00;84.00;;;;;;6276715;27;88348;-67
2023/05/18 00:40:11;;;;;;;7.97;6.93;;;23.00;84.00;;;;;;6282820;27;89057;-67
2023/05/18 00:43:13;;;;;;;8.65;7.30;;;23.00;84.00;;;;;;6290066;27;88789;-67
2023/05/18 00:46:15;;;;;;;8.07;7.20;;;23.00;84.00;;;;;;6269134;27;90079;-67
2023/05/18 00:49:19;;;;;;;9.48;6.70;;;23.00;83.80;;;;;;6277465;27;89202;-67
2023/05/18 00:52:21;;;;;;;7.78;6.57;;;23.00;83.80;;;;;;6271662;27;89585;-67
2023/05/18 00:55:23;;;;;;;7.40;6.30;;;23.00;83.30;;;;;;6283449;27;89237;-67
2023/05/18 00:58:26;;;;;;;7.85;6.93;;;23.00;83.50;;;;;;6275940;27;89025;-67
2023/05/18 01:01:29;;;;;;;8.05;6.80;;;23.00;83.50;;;;;;6268724;27;89302;-67
2023/05/18 01:04:33;;;;;;;8.80;6.40;;;23.00;83.50;;;;;;6277112;27;89070;-67
2023/05/18 01:07:34;;;;;;;8.65;6.88;;;22.90;83.50;;;;;;6282096;27;88685;-67
2023/05/18 01:10:38;;;;;;;7.45;6.65;;;23.00;83.50;;;;;;6298117;27;89076;-67
2023/05/18 01:13:47;;;;;;;7.25;6.38;;;23.00;83.60;;;;;;6285816;27;89066;-67
2023/05/18 01:16:56;;;;;;;7.70;6.90;;;23.00;83.60;;;;;;6286909;27;89908;-67
2023/05/18 01:20:17;;;;;;;7.35;6.53;;;23.00;83.50;;;;;;6270988;27;88756;-67
2023/05/18 01:23:52;;;;;;;8.23;6.60;;;22.90;83.50;;;;;;6279193;27;87965;-67
2023/05/18 01:26:58;;;;;;;6.60;5.93;;;22.90;83.40;;;;;;6259574;27;87939;-67
2023/05/18 01:30:00;;;;;;;7.47;6.68;;;23.00;83.50;;;;;;6265806;27;89103;-67
2023/05/18 01:33:07;;;;;;;7.25;6.43;;;22.90;83.50;;;;;;6280226;27;89166;-67
2023/05/18 01:36:09;;;;;;;6.97;6.28;;;22.90;83.50;;;;;;6268010;27;88006;-68
2023/05/18 01:39:11;;;;;;;7.43;5.95;;;22.90;83.50;;;;;;6271897;27;88359;-67
2023/05/18 01:42:20;;;;;;;6.22;5.60;;;22.90;83.50;;;;;;6274493;27;87953;-68
2023/05/18 01:45:27;;;;;;;7.15;5.85;;;22.90;83.60;;;;;;6278846;27;89147;-67
2023/05/18 01:48:29;;;;;;;6.85;6.15;;;22.90;83.50;;;;;;6277048;27;90081;-67
2023/05/18 01:51:36;;;;;;;6.93;6.20;;;22.90;83.50;;;;;;6274584;27;89480;-67
2023/05/18 01:54:42;;;;;;;7.18;6.00;;;22.90;83.50;;;;;;6281654;27;88044;-67
2023/05/18 01:57:49;;;;;;;6.85;5.80;;;22.90;83.50;;;;;;6278947;27;89058;-68
2023/05/18 02:00:51;;;;;;;7.68;5.78;;;22.90;83.50;;;;;;6257867;27;88443;-67
2023/05/18 02:03:53;;;;;;;6.63;5.85;;;22.90;83.60;;;;;;6269532;27;89112;-67
2023/05/18 02:06:56;;;;;;;7.85;6.28;;;22.90;83.50;;;;;;6275290;27;89350;-68
2023/05/18 02:09:58;;;;;;;7.22;6.45;;;22.90;83.50;;;;;;6257187;27;88275;-67
2023/05/18 02:13:01;;;;;;;8.77;6.65;;;22.90;83.50;;;;;;6279196;27;90097;-67
2023/05/18 02:16:03;;;;;;;6.43;5.45;;;22.90;83.50;;;;;;6274178;27;89550;-67
2023/05/18 02:19:06;;;;;;;7.32;5.25;;;22.90;83.60;;;;;;6291880;27;88825;-68
2023/05/18 02:22:08;;;;;;;6.75;5.43;;;22.90;83.60;;;;;;6286583;27;88739;-68
2023/05/18 02:25:10;;;;;;;6.15;5.55;;;22.90;83.60;;;;;;6276458;27;87971;-67
2023/05/18 02:28:13;;;;;;;6.40;5.43;;;22.90;83.50;;;;;;6274866;27;89142;-68
2023/05/18 02:31:15;;;;;;;5.47;4.97;;;22.90;83.50;;;;;;6276143;27;87881;-67
2023/05/18 02:34:18;;;;;;;5.50;4.90;;;22.90;83.60;;;;;;6277844;27;89012;-68
2023/05/18 02:37:21;;;;;;;6.30;5.50;;;22.80;83.70;;;;;;6277375;27;88727;-67
2023/05/18 02:40:23;;;;;;;5.88;4.78;;;22.80;83.60;;;;;;6270624;27;88584;-67
2023/05/18 02:43:27;;;;;;;6.07;5.47;;;22.80;83.70;;;;;;6266378;27;88280;-68
2023/05/18 02:46:29;;;;;;;6.88;5.20;;;22.80;83.70;;;;;;6263399;27;89100;-68
2023/05/18 02:49:32;;;;;;;6.43;5.10;;;22.80;83.70;;;;;;6284064;27;90112;-68
2023/05/18 02:52:34;;;;;;;6.30;4.57;;;22.80;83.70;;;;;;6276172;27;89244;-67
2023/05/18 02:55:36;;;;;;;6.50;5.22;;;22.80;84.60;;;;;;6272804;27;89348;-68
2023/05/18 02:58:42;;;;;;;6.88;5.13;;;22.80;83.70;;;;;;6270984;27;89076;-68
2023/05/18 03:01:44;;;;;;;6.68;5.50;;;22.90;83.70;;;;;;6270831;27;88958;-68
2023/05/18 03:04:52;;;;;;;6.47;5.65;;;22.80;83.70;;;;;;6262076;27;88987;-68
2023/05/18 03:07:54;;;;;;;5.80;5.15;;;22.80;83.70;;;;;;6264974;27;89445;-68
2023/05/18 03:10:56;;;;;;;6.32;5.57;;;22.80;83.70;;;;;;6270972;27;88282;-68
2023/05/18 03:14:00;;;;;;;6.45;5.78;;;22.80;83.80;;;;;;6268599;27;87952;-67
2023/05/18 03:17:04;;;;;;;7.32;5.63;;;22.80;83.80;;;;;;6281324;27;88095;-67
2023/05/18 03:20:09;;;;;;;6.95;5.95;;;22.80;83.80;;;;;;6272962;27;90005;-68
2023/05/18 03:23:11;;;;;;;7.03;6.00;;;22.80;83.70;;;;;;6276568;27;89230;-67
2023/05/18 03:26:15;;;;;;;7.22;6.00;;;22.80;83.80;;;;;;6280823;27;89082;-67
2023/05/18 03:29:18;;;;;;;8.05;6.13;;;22.70;83.70;;;;;;6267077;27;89073;-67
2023/05/18 03:32:20;;;;;;;6.75;5.90;;;22.80;83.80;;;;;;6269668;27;89100;-67
2023/05/18 03:35:22;;;;;;;6.65;5.85;;;22.70;83.70;;;;;;6274339;27;89023;-68
2023/05/18 03:38:24;;;;;;;6.60;5.90;;;22.70;83.70;;;;;;6290749;27;89162;-67
2023/05/18 03:41:28;;;;;;;6.90;6.20;;;22.70;83.70;;;;;;6269331;27;88350;-67
2023/05/18 03:44:31;;;;;;;7.55;6.35;;;22.70;83.70;;;;;;6281482;27;89233;-67
2023/05/18 03:47:33;;;;;;;7.85;6.50;;;22.70;83.70;;;;;;6287192;27;89118;-67
2023/05/18 03:50:35;;;;;;;8.63;6.78;;;22.70;83.70;;;;;;6254777;27;89946;-67
2023/05/18 03:53:38;;;;;;;8.85;6.65;;;22.70;83.70;;;;;;6266584;27;87948;-66
2023/05/18 03:56:40;;;;;;;7.57;6.60;;;22.70;83.70;;;;;;6267212;27;89083;-68
2023/05/18 03:59:44;;;;;;;7.07;6.38;;;22.70;83.70;;;;;;6264538;27;89263;-67
2023/05/18 04:02:50;;;;;;;6.88;6.15;;;22.70;83.70;;;;;;6278141;27;89047;-67
2023/05/18 04:05:52;;;;;;;7.53;6.28;;;22.70;83.70;;;;;;6261005;27;88995;-67
2023/05/18 04:08:54;;;;;;;7.30;6.60;;;22.70;83.70;;;;;;6262501;27;89060;-67
2023/05/18 04:11:56;;;;;;;8.15;7.28;;;22.70;83.60;;;;;;6268286;27;88316;-67
2023/05/18 04:14:59;;;;;;;7.72;6.70;;;22.80;83.70;;;;;;6286017;27;89186;-67
2023/05/18 04:18:01;;;;;;;8.07;7.28;;;22.80;83.60;;;;;;6287551;27;87972;-67
2023/05/18 04:21:05;;;;;;;8.32;7.43;;;22.70;83.50;;;;;;6279572;27;90598;-68
2023/05/18 04:24:08;;;;;;;9.10;7.57;;;22.70;83.50;;;;;;6278502;27;89398;-67
2023/05/18 04:27:10;;;;;;;7.78;6.80;;;22.80;83.50;;;;;;6283166;27;89023;-67
2023/05/18 04:30:17;;;;;;;9.13;7.10;;;22.80;83.50;;;;;;6259934;27;89038;-67
2023/05/18 04:33:19;;;;;;;7.72;6.93;;;22.80;83.50;;;;;;6277385;27;89133;-67
2023/05/18 04:36:24;;;;;;;10.45;7.55;;;22.80;83.40;;;;;;6265542;27;89123;-68
2023/05/18 04:39:26;;;;;;;8.00;7.20;;;22.80;83.30;;;;;;6275006;27;89126;-67
2023/05/18 04:42:29;;;;;;;7.93;6.93;;;22.80;83.30;;;;;;6281765;27;88316;-68
2023/05/18 04:45:32;;;;;;;8.05;7.20;;;22.80;83.30;;;;;;6270814;27;88506;-67
2023/05/18 04:48:35;;;;;;;8.05;7.22;;;22.80;83.20;;;;;;6282330;27;88988;-68
2023/05/18 04:51:37;;;;;;;8.60;6.88;;;22.80;83.20;;;;;;6272752;27;90009;-67
2023/05/18 04:54:39;;;;;;;9.13;7.80;;;22.80;83.20;;;;;;6270466;27;89121;-68
2023/05/18 04:57:43;;;;;;;9.15;7.65;;;22.90;83.20;;;;;;6281293;27;88580;-68
2023/05/18 05:00:47;;;;;;;8.10;7.30;;;22.90;83.20;;;;;;6259632;27;89126;-67
2023/05/18 05:03:49;;;;;;;8.40;7.25;;;22.90;83.20;;;;;;6270726;27;89062;-67
2023/05/18 05:06:50;;;;;;;8.05;7.25;;;22.90;83.20;;;;;;6269959;27;89145;-67
2023/05/18 05:09:52;;;;;;;8.18;7.38;;;22.90;83.10;;;;;;6271916;27;89118;-67
2023/05/18 05:12:54;;;;;;;8.95;8.00;;;22.90;83.10;;;;;;6262330;27;87265;-67
2023/05/18 05:15:58;;;;;;;8.90;7.60;;;22.90;83.10;;;;;;6269897;27;89118;-67
2023/05/18 05:19:00;;;;;;;9.60;7.82;;;22.90;83.00;;;;;;6281038;27;89347;-67
2023/05/18 05:22:02;;;;;;;8.52;7.57;;;22.90;83.10;;;;;;6269891;27;90065;-67
2023/05/18 05:25:04;;;;;;;7.97;7.20;;;22.90;83.00;;;;;;6285524;27;89473;-67
2023/05/18 05:28:06;;;;;;;8.20;7.40;;;23.00;83.10;;;;;;6278140;27;89048;-67
2023/05/18 05:31:09;;;;;;;8.45;7.47;;;23.00;83.00;;;;;;6269752;27;89029;-66
2023/05/18 05:34:12;;;;;;;8.48;7.50;;;22.90;83.00;;;;;;6272878;27;89215;-67
2023/05/18 05:37:14;;;;;;;8.43;7.57;;;23.00;83.00;;;;;;6278976;27;89177;-67
2023/05/18 05:40:16;;;;;;;7.88;7.05;;;23.00;83.00;;;;;;6275836;27;89780;-67
2023/05/18 05:43:18;;;;;;;7.50;6.78;;;23.00;83.00;;;;;;6267254;27;89017;-67
2023/05/18 05:46:21;;;;;;;8.77;7.22;;;23.00;82.90;;;;;;6272217;27;88004;-67
2023/05/18 05:49:24;;;;;;;8.13;7.18;;;23.00;82.90;;;;;;6279658;27;89183;-67
2023/05/18 05:52:27;;;;;;;9.45;6.68;;;23.00;83.00;;;;;;6275531;27;89615;-67
2023/05/18 05:55:29;;;;;;;8.85;7.25;;;23.00;83.90;;;;;;6277679;27;88031;-68
2023/05/18 05:58:31;;;;;;;7.78;6.97;;;23.00;83.00;;;;;;6270821;27;89128;-68
2023/05/18 06:01:35;;;;;;;7.60;6.80;;;23.00;83.10;;;;;;6269184;27;87886;-67
2023/05/18 06:04:37;;;;;;;7.28;6.57;;;23.00;83.10;;;;;;6280560;27;89169;-67
2023/05/18 06:07:39;;;;;;;7.57;6.60;;;23.00;83.10;;;;;;6273493;27;89619;-68
2023/05/18 06:10:41;;;;;;;9.13;7.60;;;23.00;83.20;;;;;;6272507;27;89149;-67
2023/05/18 06:13:43;;;;;;;7.82;6.45;;;23.00;83.20;;;;;;6271337;27;89753;-67
2023/05/18 06:16:46;;;;;;;7.03;6.32;;;23.00;83.20;;;;;;6280528;27;90686;-68
2023/05/18 06:19:48;;;;;;;7.32;6.63;;;23.00;83.20;;;;;;6269006;27;88980;-68
2023/05/18 06:22:50;;;;;;;7.05;6.28;;;23.00;83.20;;;;;;6265970;27;90275;-66
2023/05/18 06:25:52;;;;;;;7.55;6.85;;;23.00;83.50;;;;;;6290856;27;89727;-67
2023/05/18 06:28:54;;;;;;;8.82;7.85;;;23.00;83.70;;;;;;6279119;27;89090;-66
2023/05/18 06:31:57;;;;;;;7.38;6.68;;;23.00;85.00;;;;;;6272654;27;89102;-65
2023/05/18 06:34:59;;;;;;;5.78;5.15;;;23.10;84.50;;;;;;6268196;27;89004;-67
2023/05/18 06:38:01;;;;;;;5.88;5.38;;;23.10;82.80;;;;;;6263301;27;87760;-66
2023/05/18 06:41:03;;;;;;;6.32;5.60;;;23.10;82.20;;;;;;6257570;27;88987;-64
2023/05/18 06:44:05;;;;;;;7.45;5.90;;;23.10;82.00;;;;;;6263364;27;87237;-67
2023/05/18 06:47:09;;;;;;;6.35;5.72;;;23.20;82.30;;;;;;6266275;27;89079;-67
2023/05/18 06:50:11;;;;;;;6.63;5.93;;;23.20;82.70;;;;;;6277031;27;89055;-67
2023/05/18 06:53:13;;;;;;;7.00;6.00;;;23.20;82.70;;;;;;6275857;27;90027;-68
2023/05/18 06:56:15;;;;;;;6.63;5.93;;;23.20;82.80;;;;;;6267748;27;89150;-68
2023/05/18 06:59:17;;;;;;;6.03;5.43;;;23.20;82.80;;;;;;6265717;27;89085;-67
2023/05/18 07:02:21;;;;;;;6.53;5.72;;;23.20;82.80;;;;;;6279953;27;89011;-68
2023/05/18 07:05:24;;;;;;;6.53;5.80;;;23.10;82.80;;;;;;6273139;27;89165;-67
2023/05/18 07:08:26;;;;;;;6.32;5.50;;;23.20;83.00;;;;;;6268745;27;89504;-67
2023/05/18 07:11:28;;;;;;;6.88;5.45;;;23.10;83.00;;;;;;6269334;27;89080;-67
2023/05/18 07:14:29;;;;;;;6.05;5.45;;;23.10;83.00;;;;;;6265829;27;88316;-67
2023/05/18 07:17:33;;;;;;;6.95;5.85;;;23.10;83.00;;;;;;6288833;27;89265;-68
2023/05/18 07:20:35;;;;;;;6.28;5.53;;;23.20;83.10;;;;;;6270511;27;89086;-68
2023/05/18 07:23:37;;;;;;;5.90;5.28;;;23.10;83.10;;;;;;6266131;27;90037;-68
2023/05/18 07:26:39;;;;;;;6.28;5.25;;;23.20;83.20;;;;;;6263151;27;87954;-67
2023/05/18 07:29:41;;;;;;;7.63;5.80;;;23.20;83.20;;;;;;6261630;27;89058;-67
2023/05/18 07:32:47;;;;;;;7.00;5.30;;;23.20;83.20;;;;;;6282834;27;89122;-67
2023/05/18 07:35:49;;;;;;;5.72;5.05;;;23.10;83.20;;;;;;6275579;27;89044;-67
2023/05/18 07:38:53;;;;;;;5.82;5.15;;;23.10;83.30;;;;;;6285016;27;88991;-67
2023/05/18 07:41:55;;;;;;;6.05;5.13;;;23.10;83.30;;;;;;6286837;27;89317;-67
2023/05/18 07:44:57;;;;;;;6.55;5.57;;;23.10;83.30;;;;;;6264027;27;88344;-66
2023/05/18 07:48:01;;;;;;;6.70;5.32;;;23.20;83.50;;;;;;6263428;27;89136;-66
2023/05/18 07:51:03;;;;;;;5.20;4.68;;;23.10;83.70;;;;;;6270487;27;89324;-66
2023/05/18 07:54:06;;;;;;;7.25;5.22;;;23.10;84.30;;;;;;6284515;27;90014;-66
2023/05/18 07:57:08;;;;;;;6.68;5.00;;;23.20;84.50;;;;;;6259625;27;89295;-66
2023/05/18 08:00:11;;;;;;;5.35;4.53;;;23.30;84.70;;;;;;6268014;27;89085;-65
2023/05/18 08:03:14;;;;;;;5.03;4.53;;;23.20;84.40;;;;;;6261316;27;91525;-66
2023/05/18 08:06:16;;;;;;;5.60;4.95;;;23.20;84.00;;;;;;6266428;27;88844;-65
2023/05/18 08:09:20;;;;;;;6.20;4.95;;;23.20;83.90;;;;;;6277265;27;89083;-66
2023/05/18 08:12:23;;;;;;;5.25;4.72;;;23.20;84.00;;;;;;6274378;27;89219;-65
2023/05/18 08:15:25;;;;;;;10.38;5.88;;;23.30;84.00;;;;;;6274639;27;88362;-66
2023/05/18 08:18:28;;;;;;;7.22;5.10;;;23.20;84.00;;;;;;6274109;27;89073;-67
2023/05/18 08:21:31;;;;;;;5.00;4.50;;;23.20;84.20;;;;;;6264888;27;89107;-66
2023/05/18 08:24:33;;;;;;;5.85;4.80;;;23.20;84.20;;;;;;6265391;27;90123;-66
2023/05/18 08:27:35;;;;;;;5.45;4.88;;;23.20;84.30;;;;;;6262758;27;88998;-66
2023/05/18 08:30:37;;;;;;;5.00;4.50;;;23.20;84.40;;;;;;6274493;27;89137;-67
2023/05/18 08:33:41;;;;;;;6.72;4.72;;;23.30;84.50;;;;;;6280122;27;89036;-67
2023/05/18 08:36:44;;;;;;;5.38;4.40;;;23.20;84.50;;;;;;6261060;27;89002;-67
2023/05/18 08:39:46;;;;;;;5.50;4.68;;;23.20;84.50;;;;;;6280165;27;88267;-66
2023/05/18 08:42:51;;;;;;;5.50;4.63;;;23.20;84.60;;;;;;6273405;27;87961;-66
2023/05/18 08:46:00;;;;;;;6.05;4.30;;;23.20;84.60;;;;;;6272278;27;88314;-66
2023/05/18 08:49:05;;;;;;;5.93;4.40;;;23.20;84.70;;;;;;6269141;27;89118;-67
2023/05/18 08:52:08;;;;;;;5.13;4.30;;;23.30;84.90;;;;;;6272645;27;89287;-67
2023/05/18 08:55:12;;;;;;;5.35;4.35;;;23.20;84.80;;;;;;6264080;27;90005;-68
2023/05/18 08:58:19;;;;;;;5.03;4.00;;;23.20;84.90;;;;;;6286815;27;91232;-67
2023/05/18 09:01:26;;;;;;;4.82;4.32;;;23.30;85.90;;;;;;6272651;27;89322;-66
2023/05/18 09:04:33;;;;;;;4.78;4.28;;;23.20;85.00;;;;;;6265961;27;87975;-67
2023/05/18 09:07:36;;;;;;;4.53;4.13;;;23.20;84.90;;;;;;6268636;27;89136;-66
2023/05/18 09:10:39;;;;;;;4.40;4.00;;;23.20;85.00;;;;;;6267906;27;89068;-67
2023/05/18 09:13:43;;;;;;;6.25;4.13;;;23.20;84.50;;;;;;6269242;27;89336;-66
2023/05/18 09:16:45;;;;;;;4.70;4.20;;;23.30;84.90;;;;;;6270945;27;88369;-66
2023/05/18 09:19:48;;;;;;;6.68;4.20;;;23.20;84.90;;;;;;6258437;27;89067;-66
2023/05/18 09:22:51;;;;;;;5.50;3.90;;;23.30;84.90;;;;;;6256995;27;89357;-67
2023/05/18 09:25:53;;;;;;;4.80;3.80;;;23.20;85.60;;;;;;6260189;27;89666;-66
2023/05/18 09:28:55;;;;;;;5.00;3.95;;;23.30;84.80;;;;;;6273910;27;89153;-67
2023/05/18 09:32:02;;;;;;;4.88;3.92;;;23.30;84.70;;;;;;6275395;27;89130;-66
2023/05/18 09:35:07;;;;;;;4.68;3.92;;;23.30;84.60;;;;;;6267668;27;87981;-67
2023/05/18 09:38:09;;;;;;;5.05;4.28;;;23.30;84.50;;;;;;6271173;27;89060;-67
2023/05/18 09:41:13;;;;;;;6.15;4.10;;;23.30;84.50;;;;;;6275291;27;88708;-66
2023/05/18 09:44:16;;;;;;;4.95;3.75;;;23.20;84.40;;;;;;6270045;27;88468;-67
2023/05/18 09:47:18;;;;;;;4.88;4.20;;;23.20;84.30;;;;;;6287243;27;88385;-67
2023/05/18 09:50:22;;;;;;;4.78;3.92;;;23.30;84.30;;;;;;6265364;27;87892;-67
2023/05/18 09:53:25;;;;;;;4.32;3.90;;;23.20;84.20;;;;;;6257983;27;89063;-67
2023/05/18 09:56:27;;;;;;;5.93;3.80;;;23.30;84.20;;;;;;6267473;27;89766;-67
2023/05/18 09:59:30;;;;;;;6.38;3.95;;;23.20;84.00;;;;;;6272857;27;89080;-66
2023/05/18 10:02:32;;;;;;;4.63;3.92;;;23.20;84.00;;;;;;6270482;27;89136;-67
2023/05/18 10:05:37;;;;;;;4.43;3.80;;;23.30;84.00;;;;;;6250265;27;89086;-66
2023/05/18 10:08:40;;;;;;;4.32;3.83;;;23.30;83.90;;;;;;6275405;27;87984;-66
2023/05/18 10:11:42;;;;;;;4.97;3.90;;;23.30;83.80;;;;;;6271859;27;88980;-66
2023/05/18 10:14:45;;;;;;;4.47;3.67;;;23.30;83.80;;;;;;6273922;27;87987;-66
2023/05/18 10:17:49;;;;;;;5.15;3.70;;;23.30;83.80;;;;;;6276118;27;88676;-66
2023/05/18 10:20:55;;;;;;;4.72;3.70;;;23.30;83.70;;;;;;6278580;27;88992;-67
2023/05/18 10:23:57;;;;;;;4.95;3.83;;;23.20;83.70;;;;;;6281278;27;89119;-66
2023/05/18 10:27:03;;;;;;;4.45;4.03;;;23.30;83.70;;;;;;6275685;27;90448;-67
2023/05/18 10:30:07;;;;;;;5.30;4.05;;;23.30;83.70;;;;;;6280925;27;89112;-66
2023/05/18 10:33:10;;;;;;;6.60;4.13;;;23.30;83.70;;;;;;6263999;27;89068;-66
2023/05/18 10:36:15;;;;;;;6.43;4.40;;;23.30;83.70;;;;;;6275233;27;90246;-67
2023/05/18 10:39:18;;;;;;;6.30;4.43;;;23.30;84.00;;;;;;6262364;27;89158;-66
2023/05/18 10:42:22;;;;;;;5.53;4.78;;;23.30;84.10;;;;;;6266763;27;88058;-66
2023/05/18 10:45:24;;;;;;;10.30;5.18;;;23.30;84.20;;;;;;6275141;27;89540;-67
2023/05/18 10:48:27;;;;;;;10.90;5.47;;;23.30;84.90;;;;;;6263297;27;88349;-67
2023/05/18 10:51:32;;;;;;;11.30;5.65;;;23.30;85.00;;;;;;6279170;27;89249;-67
2023/05/18 10:54:35;;;;;;;8.32;5.85;;;23.30;85.00;;;;;;6259054;27;89292;-67
2023/05/18 10:57:40;;;;;;;8.43;6.00;;;23.30;85.30;;;;;;6274875;27;89155;-66
2023/05/18 11:00:48;;;;;;;9.50;6.30;;;23.30;85.50;;;;;;6254949;27;89050;-67
2023/05/18 11:03:50;;;;;;;11.05;6.22;;;23.40;85.80;;;;;;6265543;27;89311;-67
2023/05/18 11:06:58;;;;;;;7.95;6.57;;;23.40;86.20;;;;;;6275858;27;89148;-66
2023/05/18 11:10:02;;;;;;;7.82;6.78;;;23.40;86.50;;;;;;6270346;27;87987;-67
2023/05/18 11:13:05;;;;;;;8.63;6.43;;;23.40;85.70;;;;;;6260095;27;87657;-67
2023/05/18 11:16:09;;;;;;;10.27;7.07;;;23.40;85.60;;;;;;6274089;27;89027;-67
2023/05/18 11:19:11;;;;;;;10.00;6.47;;;23.40;85.70;;;;;;6269066;27;88350;-68
2023/05/18 11:22:14;;;;;;;9.27;7.10;;;23.40;85.90;;;;;;6260188;27;91243;-68
2023/05/18 11:25:37;;;;;;;9.52;7.25;;;23.40;85.90;;;;;;6270538;27;89113;-68
2023/05/18 11:28:43;;;;;;;8.77;7.20;;;23.40;85.80;;;;;;6259924;27;90062;-68
2023/05/18 11:31:45;;;;;;;11.00;7.10;;;23.40;85.50;;;;;;6260334;27;89183;-68
2023/05/18 11:34:51;;;;;;;10.98;7.20;;;23.40;85.30;;;;;;6266330;27;89440;-68
2023/05/18 11:37:54;;;;;;;10.30;7.28;;;23.40;85.00;;;;;;6269494;27;89057;-67
2023/05/18 11:40:59;;;;;;;6.05;4.10;;;23.40;84.70;;;;;;6266066;27;89012;-68
2023/05/18 11:44:15;;;;;;;5.00;3.00;;;23.30;72.50;;;;;;6266290;27;89544;-67
2023/05/18 11:47:18;;;;;;;4.97;3.90;;;23.10;68.40;;;;;;6275691;27;89274;-66
2023/05/18 11:50:20;;;;;;;6.53;4.93;;;22.60;66.60;;;;;;6270062;27;88644;-66
2023/05/18 11:53:25;;;;;;;4.03;2.90;;;22.00;67.90;;;;;;6276091;27;89262;-67
2023/05/18 11:56:32;;;;;;;5.13;2.90;;;21.60;69.60;;;;;;6277847;27;90851;-66
2023/05/18 11:59:37;;;;;;;4.38;2.80;;;21.40;71.30;;;;;;6263838;27;92030;-67
2023/05/18 12:02:42;;;;;;;4.40;2.75;;;21.30;72.80;;;;;;6266987;27;89122;-67
2023/05/18 12:05:48;;;;;;;3.33;2.72;;;21.40;73.50;;;;;;6267458;27;89761;-65
2023/05/18 12:08:52;;;;;;;4.60;3.10;;;21.50;74.50;;;;;;6276304;27;87682;-65
2023/05/18 12:11:55;;;;;;;6.45;3.30;;;21.60;75.30;;;;;;6280522;27;89123;-65
2023/05/18 12:14:59;;;;;;;3.50;3.17;;;21.80;75.80;;;;;;6274972;27;89087;-65
2023/05/18 12:18:01;;;;;;;3.75;3.17;;;21.90;76.20;;;;;;6270939;27;90504;-65
2023/05/18 12:21:05;;;;;;;3.83;3.40;;;22.00;76.40;;;;;;6268019;27;88367;-66
2023/05/18 12:24:09;;;;;;;4.82;3.50;;;22.10;76.60;;;;;;6267883;27;89055;-65
2023/05/18 12:27:12;;;;;;;7.20;4.22;;;22.20;76.90;;;;;;6273652;27;89132;-66
2023/05/18 12:30:18;;;;;;;5.05;3.47;;;22.20;77.90;;;;;;6264519;27;89988;-65
2023/05/18 12:33:21;;;;;;;3.70;3.38;;;22.30;77.20;;;;;;6271462;27;89035;-65
2023/05/18 12:36:23;;;;;;;4.25;3.38;;;22.40;77.40;;;;;;6271278;27;89079;-66
2023/05/18 12:39:26;;;;;;;4.68;3.42;;;22.50;77.70;;;;;;6275947;27;89576;-66
2023/05/18 12:42:28;;;;;;;5.13;3.70;;;22.50;77.80;;;;;;6262250;27;88968;-65
2023/05/18 12:45:33;;;;;;;4.60;3.75;;;22.50;78.00;;;;;;6264035;27;89134;-66
2023/05/18 12:48:45;;;;;;;6.20;3.85;;;22.60;78.30;;;;;;6269755;27;88259;-66
2023/05/18 12:51:47;;;;;;;4.25;3.60;;;22.60;78.40;;;;;;6268957;27;88402;-66
2023/05/18 12:54:57;;;;;;;3.92;3.50;;;22.60;78.50;;;;;;6277286;27;89052;-66
2023/05/18 12:58:01;;;;;;;4.45;3.55;;;22.60;78.50;;;;;;6263413;27;89070;-67
2023/05/18 13:01:08;;;;;;;3.72;3.38;;;22.60;78.70;;;;;;6269345;27;90063;-66
2023/05/18 13:04:12;;;;;;;3.97;3.40;;;22.70;79.10;;;;;;6260010;27;88858;-66
2023/05/18 13:07:14;;;;;;;5.45;3.90;;;22.70;79.40;;;;;;6266541;27;89119;-66
2023/05/18 13:10:19;;;;;;;4.22;3.80;;;22.70;80.00;;;;;;6271541;27;87941;-66
2023/05/18 13:13:21;;;;;;;3.80;3.35;;;22.80;80.60;;;;;;6249350;27;89167;-67
2023/05/18 13:16:23;;;;;;;5.72;3.88;;;22.80;81.10;;;;;;6264618;27;89773;-66
2023/05/18 13:19:26;;;;;;;4.50;3.88;;;22.80;81.30;;;;;;6275485;27;89165;-67
2023/05/18 13:22:28;;;;;;;5.85;3.95;;;22.80;81.60;;;;;;6272294;27;88470;-66
2023/05/18 13:25:32;;;;;;;7.55;3.80;;;22.80;81.60;;;;;;6254503;27;89120;-66
2023/05/18 13:28:34;;;;;;;5.03;3.40;;;22.80;81.80;;;;;;6276276;27;89026;-66
2023/05/18 13:31:36;;;;;;;5.78;3.80;;;22.90;82.00;;;;;;6272091;27;90116;-66
2023/05/18 13:34:38;;;;;;;7.43;4.10;;;22.90;82.00;;;;;;6277203;27;87889;-66
2023/05/18 13:37:41;;;;;;;6.93;4.50;;;22.90;82.10;;;;;;6258065;27;89091;-66
2023/05/18 13:40:45;;;;;;;7.55;4.00;;;22.90;82.20;;;;;;6267305;27;89162;-66
2023/05/18 13:43:47;;;;;;;7.53;4.00;;;22.90;82.20;;;;;;6280752;27;89236;-66
2023/05/18 13:46:49;;;;;;;8.65;3.88;;;22.90;82.20;;;;;;6285574;27;89727;-66
2023/05/18 13:49:51;;;;;;;4.25;3.55;;;22.90;82.30;;;;;;6279868;27;87885;-66
2023/05/18 13:52:53;;;;;;;4.80;4.03;;;22.80;82.30;;;;;;6260206;27;88329;-66
2023/05/18 13:55:56;;;;;;;5.75;3.95;;;22.80;82.30;;;;;;6266307;27;89040;-66
2023/05/18 13:58:58;;;;;;;6.32;4.40;;;22.80;82.30;;;;;;6262065;27;89064;-67
2023/05/18 14:02:00;;;;;;;7.40;4.25;;;22.80;82.40;;;;;;6271750;27;90574;-66
2023/05/18 14:05:02;;;;;;;4.70;4.20;;;22.80;82.50;;;;;;6265492;27;89037;-67
2023/05/18 14:08:04;;;;;;;6.72;4.60;;;22.80;82.60;;;;;;6262900;27;89070;-66
2023/05/18 14:11:08;;;;;;;5.13;4.35;;;22.80;83.00;;;;;;6266215;27;89040;-67
2023/05/18 14:14:10;;;;;;;5.90;3.97;;;22.90;83.30;;;;;;6277526;27;89148;-66
2023/05/18 14:17:12;;;;;;;4.85;4.35;;;22.80;83.10;;;;;;6276812;27;89063;-67
2023/05/18 14:20:14;;;;;;;5.65;4.20;;;22.80;83.20;;;;;;6268174;27;87019;-67
2023/05/18 14:23:16;;;;;;;6.90;4.00;;;22.80;83.40;;;;;;6277674;27;88204;-67
2023/05/18 14:26:20;;;;;;;6.10;4.28;;;22.80;83.70;;;;;;6256196;27;89087;-68
2023/05/18 14:29:22;;;;;;;7.78;4.60;;;22.80;84.00;;;;;;6273690;27;89027;-67
2023/05/18 14:32:24;;;;;;;6.70;4.63;;;22.80;84.10;;;;;;6267973;27;88959;-67
2023/05/18 14:35:26;;;;;;;7.63;5.05;;;22.90;84.40;;;;;;6265074;27;88716;-67
2023/05/18 14:38:28;;;;;;;8.93;5.18;;;22.90;84.80;;;;;;6261335;27;89051;-66
2023/05/18 14:41:32;;;;;;;11.98;5.40;;;22.90;86.30;;;;;;6269284;27;87919;-65
2023/05/18 14:44:33;;;;;;;8.07;5.00;;;22.90;87.40;;;;;;6273244;27;87962;-66
2023/05/18 14:47:36;;;;;;;7.63;4.63;;;22.90;86.70;;;;;;6285679;27;89193;-66
2023/05/18 14:50:38;;;;;;;8.27;4.90;;;23.00;87.00;;;;;;6248850;27;87722;-66
2023/05/18 14:53:40;;;;;;;7.93;4.55;;;23.00;87.20;;;;;;6269437;27;88535;-67
2023/05/18 14:56:43;;;;;;;6.72;4.95;;;23.00;87.60;;;;;;6267757;27;89000;-68
2023/05/18 14:59:45;;;;;;;8.02;5.38;;;23.00;87.70;;;;;;6260598;27;89127;-68
2023/05/18 15:02:47;;;;;;;9.15;5.00;;;23.00;88.40;;;;;;6253172;27;90698;-68
2023/05/18 15:05:49;;;;;;;8.93;4.93;;;23.00;88.60;;;;;;6257585;27;90742;-68
2023/05/18 15:08:51;;;;;;;9.57;5.30;;;23.10;89.10;;;;;;6268735;27;89110;-68
2023/05/18 15:11:55;;;;;;;6.97;4.80;;;23.10;89.30;;;;;;6259659;27;88922;-68
2023/05/18 15:14:57;;;;;;;10.70;5.00;;;23.20;89.80;;;;;;6271142;27;89161;-66
2023/05/18 15:17:59;;;;;;;7.40;4.53;;;23.10;90.00;;;;;;6264924;27;89141;-66
2023/05/18 15:21:01;;;;;;;8.48;4.82;;;23.20;90.20;;;;;;6262973;27;89531;-66
2023/05/18 15:24:03;;;;;;;8.38;4.60;;;23.20;90.00;;;;;;6271164;27;88424;-65
2023/05/18 15:27:07;;;;;;;7.85;4.68;;;23.20;90.00;;;;;;6271610;27;89069;-66
2023/05/18 15:30:11;;;;;;;8.18;4.80;;;23.20;90.00;;;;;;6261207;27;88965;-64
2023/05/18 15:33:13;;;;;;;7.57;4.63;;;23.20;90.10;;;;;;6265193;27;90044;-64
2023/05/18 15:36:15;;;;;;;11.43;5.43;;;23.20;90.40;;;;;;6262692;27;89028;-63
2023/05/18 15:39:17;;;;;;;10.88;4.60;;;23.30;90.20;;;;;;6269473;27;89835;-65
2023/05/18 15:42:20;;;;;;;10.70;4.85;;;23.20;90.30;;;;;;6263906;27;89402;-65
2023/05/18 15:45:22;;;;;;;9.00;4.53;;;23.30;90.60;;;;;;6270650;27;89085;-65
2023/05/18 15:48:24;;;;;;;8.52;4.85;;;23.30;91.20;;;;;;6268218;27;89067;-65
2023/05/18 15:51:26;;;;;;;6.18;4.10;;;23.30;92.80;;;;;;6272010;27;89118;-65